Time;durP1;ratioP1;P1;durP2;ratioP2;P2;SDS_P1;SDS_P2;PMS_P1;PMS_P2;Temp;Humidity;BMP_temperature;BMP_pressure;BME280_temperature;BME280_humidity;BME280_pressure;Samples;Min_cycle;Max_cycle;Signal;HPM_P1;HPM_P2
2022/06/02 00:01:06;;;;;;;11.38;8.15;;;;;;;10.01;93.43;96155.44;2090998;28;20044;-61
2022/06/02 00:02:32;;;;;;;11.38;9.57;;;;;;;10.02;93.53;96153.69;2091105;28;20043;-59
2022/06/02 00:03:38;;;;;;;10.52;8.55;;;;;;;10.05;93.65;96153.56;2088643;28;20045;-61
2022/06/02 00:04:52;;;;;;;10.23;8.75;;;;;;;10.06;93.90;96152.66;2075928;28;20049;-63
2022/06/02 00:06:18;;;;;;;10.65;9.55;;;;;;;10.07;93.54;96156.94;2081732;28;20542;-61
2022/06/02 00:07:44;;;;;;;16.10;10.27;;;;;;;10.10;93.90;96154.19;2082977;28;20091;-60
2022/06/02 00:08:54;;;;;;;12.52;8.65;;;;;;;10.10;94.25;96156.78;2079750;28;20052;-62
2022/06/02 00:10:23;;;;;;;10.70;8.98;;;;;;;10.13;93.72;96159.25;2067020;28;20054;-59
2022/06/02 00:11:33;;;;;;;10.27;8.52;;;;;;;10.16;94.15;96159.16;2067830;28;20065;-61
2022/06/02 00:12:56;;;;;;;11.95;8.23;;;;;;;10.19;93.47;96165.97;2074859;28;20440;-59
2022/06/02 00:14:20;;;;;;;12.05;9.23;;;;;;;10.20;93.64;96168.47;2086933;28;20044;-60
2022/06/02 00:15:26;;;;;;;11.40;7.97;;;;;;;10.15;93.93;96149.66;2075430;28;20579;-62
2022/06/02 00:16:35;;;;;;;9.45;8.25;;;;;;;10.28;94.19;96163.81;2077820;28;20060;-61
2022/06/02 00:18:04;;;;;;;10.35;8.23;;;;;;;10.31;94.16;96163.69;2090328;28;20041;-60
2022/06/02 00:19:09;;;;;;;11.73;8.10;;;;;;;10.34;93.95;96168.78;2096805;28;20045;-64
2022/06/02 00:20:20;;;;;;;9.43;7.95;;;;;;;10.38;94.04;96170.31;2080503;28;20553;-61
2022/06/02 00:21:37;;;;;;;12.38;8.88;;;;;;;10.41;93.96;96169.34;2074830;28;20471;-63
2022/06/02 00:22:46;;;;;;;12.13;8.43;;;;;;;10.39;94.09;96168.53;2084010;28;20388;-63
2022/06/02 00:23:51;;;;;;;;;;;;;;;10.41;93.95;96174.53;2089511;28;20056;-63
2022/06/02 00:25:05;;;;;;;10.48;8.20;;;;;;;10.41;93.39;96169.34;2096489;28;19924;-63
2022/06/02 00:26:35;;;;;;;11.25;8.23;;;;;;;10.40;93.20;96170.25;2097372;28;20060;-65
2022/06/02 00:27:42;;;;;;;11.35;7.97;;;;;;;10.41;94.00;96173.69;2090785;28;21537;-65
2022/06/02 00:28:48;;;;;;;9.43;8.13;;;;;;;10.40;93.33;96177.19;2104586;28;20062;-61
2022/06/02 00:30:01;;;;;;;13.82;8.55;;;;;;;10.40;93.11;96178.03;2088226;28;20446;-62
2022/06/02 00:31:10;;;;;;;12.18;8.25;;;;;;;10.38;93.93;96178.09;2083245;28;20053;-63
2022/06/02 00:32:24;;;;;;;;;;;;;;;10.40;93.83;96183.22;2088282;28;20051;-61
2022/06/02 00:33:32;;;;;;;10.10;7.70;;;;;;;10.38;93.21;96183.28;2074339;28;19914;-63
2022/06/02 00:34:37;;;;;;;11.85;8.77;;;;;;;10.37;93.68;96184.22;2082140;28;20049;-62
2022/06/02 00:35:47;;;;;;;12.32;9.10;;;;;;;10.36;93.91;96179.06;2090064;28;20037;-63
2022/06/02 00:37:00;;;;;;;10.13;8.43;;;;;;;10.31;93.74;96176.66;2089277;28;20053;-63
2022/06/02 00:38:03;;;;;;;13.57;10.07;;;;;;;10.29;93.01;96182.84;2081557;28;20052;-63
2022/06/02 00:39:08;;;;;;;11.32;8.20;;;;;;;10.26;92.90;96175.97;2079834;28;20050;-63
2022/06/02 00:40:09;;;;;;;10.38;8.57;;;;;;;10.27;93.17;96177.72;2073753;28;20042;-64
2022/06/02 00:41:32;;;;;;;12.52;9.05;;;;;;;10.26;93.21;96182.94;2066211;28;20542;-63
2022/06/02 00:42:37;;;;;;;9.98;8.52;;;;;;;10.26;93.49;96178.59;2080074;28;20052;-63
2022/06/02 00:44:10;;;;;;;11.95;9.73;;;;;;;10.24;93.86;96179.59;2076407;28;20537;-64
2022/06/02 00:45:14;;;;;;;12.60;9.32;;;;;;;10.17;93.70;96181.59;2078746;28;20037;-63
2022/06/02 00:46:36;;;;;;;11.82;8.80;;;;;;;10.14;93.19;96179.13;2084473;28;20407;-64
2022/06/02 00:47:57;;;;;;;11.05;8.82;;;;;;;10.14;93.59;96177.38;2092344;28;20086;-63
2022/06/02 00:49:22;;;;;;;11.95;9.18;;;;;;;10.18;93.74;96185.00;2091326;28;20616;-64
2022/06/02 00:51:00;;;;;;;12.00;8.60;;;;;;;10.08;93.40;96172.44;2097740;28;20049;-62
2022/06/02 00:52:14;;;;;;;12.95;10.05;;;;;;;10.04;93.01;96178.66;2088538;28;20048;-65
2022/06/02 00:53:37;;;;;;;11.73;9.20;;;;;;;9.99;93.30;96177.16;2086364;28;20052;-65
2022/06/02 00:57:58;;;;;;;;;;;;;;;9.87;93.55;96178.53;2089201;28;20053;-63
2022/06/02 00:59:28;;;;;;;12.35;8.38;;;;;;;9.84;93.22;96178.66;2085925;28;19917;-64
2022/06/02 01:00:37;;;;;;;12.48;10.05;;;;;;;9.82;93.08;96181.31;2081100;28;20453;-64
2022/06/02 01:01:38;;;;;;;12.70;9.55;;;;;;;9.79;93.79;96180.59;2086120;28;20522;-63
2022/06/02 01:03:02;;;;;;;12.35;9.88;;;;;;;9.78;93.50;96190.09;2081629;28;20046;-63
2022/06/02 01:04:05;;;;;;;16.50;11.30;;;;;;;9.75;93.45;96187.66;2087811;28;20056;-64
2022/06/02 01:05:06;;;;;;;18.50;11.80;;;;;;;9.74;93.82;96187.72;2065697;28;20041;-63
2022/06/02 01:06:16;;;;;;;15.20;11.90;;;;;;;9.73;93.74;96184.28;2065233;28;20046;-62
2022/06/02 01:07:27;;;;;;;14.25;10.80;;;;;;;9.72;94.29;96180.00;2083016;28;20041;-62
2022/06/02 01:08:45;;;;;;;14.95;10.50;;;;;;;9.66;94.37;96178.50;2074405;28;20061;-64
2022/06/02 01:10:09;;;;;;;14.70;10.45;;;;;;;9.65;94.59;96178.56;2078355;28;20049;-64
2022/06/02 01:11:21;;;;;;;13.85;10.32;;;;;;;9.64;93.81;96179.47;2087649;28;20044;-63
2022/06/02 01:12:51;;;;;;;15.77;11.57;;;;;;;9.63;94.16;96178.63;2097172;28;20052;-64
2022/06/02 01:14:05;;;;;;;15.20;10.98;;;;;;;9.57;94.63;96185.78;2087652;28;20045;-62
2022/06/02 01:15:13;;;;;;;17.98;11.25;;;;;;;9.52;94.38;96183.41;2083014;28;20053;-62
2022/06/02 01:16:20;;;;;;;17.48;12.60;;;;;;;9.50;94.32;96172.25;2074997;28;20045;-64
2022/06/02 01:17:55;;;;;;;16.17;12.45;;;;;;;9.48;94.07;96174.88;2082581;28;20431;-64
2022/06/02 01:19:14;;;;;;;13.95;11.40;;;;;;;9.45;94.38;96177.59;2097229;28;20048;-64
2022/06/02 01:20:52;;;;;;;15.80;12.60;;;;;;;9.46;94.54;96173.25;2097364;28;20434;-63
2022/06/02 01:22:17;;;;;;;16.67;11.63;;;;;;;9.43;94.29;96170.78;2079378;28;20041;-64
2022/06/02 01:23:46;;;;;;;17.08;13.05;;;;;;;9.45;94.81;96169.00;2079330;28;20033;-63
2022/06/02 01:25:11;;;;;;;20.63;13.98;;;;;;;9.46;94.49;96173.25;2093134;28;20044;-62
2022/06/02 01:26:36;;;;;;;18.38;13.82;;;;;;;9.42;94.80;96171.72;2096933;28;20415;-62
2022/06/02 01:28:04;;;;;;;17.77;12.48;;;;;;;9.38;95.07;96175.31;2083178;28;20045;-63
2022/06/02 01:29:15;;;;;;;19.20;14.88;;;;;;;9.35;95.08;96176.28;2087538;28;20518;-61
2022/06/02 01:30:33;;;;;;;23.38;15.40;;;;;;;9.33;94.35;96177.25;2081945;28;20045;-63
2022/06/02 01:31:50;;;;;;;21.50;14.30;;;;;;;9.28;94.44;96187.81;2077462;28;20077;-63
2022/06/02 01:33:02;;;;;;;19.90;14.15;;;;;;;9.29;94.93;96192.06;2092555;28;20044;-63
2022/06/02 01:34:06;;;;;;;18.42;13.30;;;;;;;9.24;94.84;96184.47;2077110;28;20052;-63
2022/06/02 01:35:17;;;;;;;16.80;13.43;;;;;;;9.19;94.51;96185.56;2074353;28;20038;-60
2022/06/02 01:36:24;;;;;;;16.10;13.05;;;;;;;9.24;94.42;96184.47;2088808;28;20068;-64
2022/06/02 01:37:51;;;;;;;16.65;13.25;;;;;;;9.23;94.60;96189.75;2073923;28;20066;-61
2022/06/02 01:39:18;;;;;;;19.33;13.85;;;;;;;9.24;95.25;96183.63;2083100;28;20047;-63
2022/06/02 01:40:36;;;;;;;19.73;15.52;;;;;;;9.30;94.64;96192.91;2092425;28;20051;-63
2022/06/02 01:41:58;;;;;;;15.60;12.90;;;;;;;9.31;95.20;96184.25;2092227;28;20052;-62
2022/06/02 01:43:15;;;;;;;15.75;13.02;;;;;;;9.33;94.79;96188.47;2090603;28;20285;-64
2022/06/02 01:44:20;;;;;;;17.95;12.60;;;;;;;9.25;95.32;96193.13;2095410;28;20428;-62
2022/06/02 01:45:50;;;;;;;20.30;13.95;;;;;;;9.17;95.06;96196.00;2082146;28;20057;-63
2022/06/02 01:47:17;;;;;;;20.02;13.98;;;;;;;9.21;95.31;96196.72;2072996;28;20061;-63
2022/06/02 01:48:40;;;;;;;16.73;13.88;;;;;;;9.18;95.07;96189.91;2084245;28;20040;-64
2022/06/02 01:50:04;;;;;;;21.23;14.35;;;;;;;9.10;95.16;96194.53;2070806;28;20056;-62
2022/06/02 01:51:14;;;;;;;18.17;13.48;;;;;;;9.10;95.23;96191.13;2076929;28;20045;-64
2022/06/02 01:52:28;;;;;;;;;;;;;;;9.12;95.50;96197.09;2083931;28;20049;-60
2022/06/02 01:53:32;;;;;;;18.55;13.10;;;;;;;9.12;95.28;96192.75;2088802;28;19920;-63
2022/06/02 01:54:50;;;;;;;20.00;13.90;;;;;;;9.13;94.87;96193.56;2081055;28;20056;-62
2022/06/02 01:56:08;;;;;;;23.05;16.45;;;;;;;9.15;95.02;96195.22;2094528;28;20040;-63
2022/06/02 01:57:13;;;;;;;23.55;15.02;;;;;;;9.15;94.98;96196.97;2067313;28;20046;-62
2022/06/02 01:58:26;;;;;;;17.30;13.73;;;;;;;9.12;95.03;96197.91;2065903;28;20045;-63
2022/06/02 01:59:43;;;;;;;15.73;12.50;;;;;;;9.11;95.26;96205.75;2061778;28;20047;-64
2022/06/02 02:00:46;;;;;;;18.65;14.13;;;;;;;9.14;95.11;96200.44;2080568;28;20060;-64
2022/06/02 02:01:58;;;;;;;16.73;13.75;;;;;;;9.15;95.08;96202.16;2089973;28;20423;-64
2022/06/02 02:03:22;;;;;;;16.85;12.75;;;;;;;9.17;95.48;96208.97;2090949;28;20059;-63
2022/06/02 02:04:33;;;;;;;16.58;13.23;;;;;;;9.19;94.91;96201.09;2084811;28;20482;-63
2022/06/02 02:05:58;;;;;;;18.23;13.90;;;;;;;9.28;94.82;96201.59;2075499;28;20072;-64
2022/06/02 02:07:23;;;;;;;16.02;13.27;;;;;;;9.33;95.47;96203.16;2092313;28;20047;-62
2022/06/02 02:09:02;;;;;;;16.70;12.95;;;;;;;9.29;95.28;96199.84;2089518;28;20426;-63
2022/06/02 02:10:34;;;;;;;17.52;12.85;;;;;;;9.27;95.41;96189.56;2090183;28;20050;-64
2022/06/02 02:11:47;;;;;;;17.50;13.32;;;;;;;9.25;95.25;96195.72;2092809;28;20044;-62
2022/06/02 02:13:17;;;;;;;16.20;13.13;;;;;;;9.23;95.11;96190.56;2082075;28;20048;-64
2022/06/02 02:14:31;;;;;;;20.67;13.70;;;;;;;9.21;94.82;96196.72;2088382;28;20048;-63
2022/06/02 02:15:42;;;;;;;15.40;13.00;;;;;;;9.19;95.09;96198.50;2090557;28;20522;-60
2022/06/02 02:17:11;;;;;;;19.15;12.95;;;;;;;9.15;95.34;96197.81;2089794;28;20041;-62
2022/06/02 02:18:19;;;;;;;19.30;13.35;;;;;;;9.13;95.26;96197.00;2084632;28;20041;-62
2022/06/02 02:19:25;;;;;;;15.98;12.98;;;;;;;9.13;95.00;96202.19;2076615;28;20049;-61
2022/06/02 02:20:29;;;;;;;17.45;12.93;;;;;;;9.13;95.43;96201.34;2089461;28;20051;-64
2022/06/02 02:21:37;;;;;;;14.15;11.57;;;;;;;9.15;95.53;96199.56;2089449;28;20442;-62
2022/06/02 02:22:59;;;;;;;15.48;12.82;;;;;;;9.18;94.81;96205.44;2089900;28;20466;-63
2022/06/02 02:24:16;;;;;;;15.43;11.68;;;;;;;9.19;95.32;96201.09;2074968;28;20053;-62
2022/06/02 02:25:46;;;;;;;16.08;12.60;;;;;;;9.21;94.73;96194.97;2084888;28;20475;-65
2022/06/02 02:26:52;;;;;;;16.67;12.65;;;;;;;9.22;95.75;96198.41;2080697;28;20060;-64
2022/06/02 02:28:02;;;;;;;15.10;11.48;;;;;;;9.21;95.27;96207.09;2065838;28;20046;-63
2022/06/02 02:29:23;;;;;;;14.32;11.65;;;;;;;9.23;95.27;96200.09;2082122;28;20056;-62
2022/06/02 02:30:28;;;;;;;15.88;11.60;;;;;;;9.24;95.22;96201.78;2075704;28;20048;-64
2022/06/02 02:31:49;;;;;;;15.80;12.23;;;;;;;9.27;94.78;96205.13;2073387;28;20060;-63
2022/06/02 02:32:56;;;;;;;16.95;12.82;;;;;;;9.33;95.17;96210.94;2067318;28;20046;-63
2022/06/02 02:34:19;;;;;;;15.82;11.13;;;;;;;9.32;95.41;96209.25;2077224;28;20442;-62
2022/06/02 02:35:29;;;;;;;17.00;13.10;;;;;;;9.30;95.05;96205.88;2096735;28;20041;-63
2022/06/02 02:36:39;;;;;;;15.77;12.95;;;;;;;9.17;94.81;96187.38;2073473;28;20049;-61
2022/06/02 02:37:46;;;;;;;20.02;13.50;;;;;;;9.25;95.05;96212.09;2080279;28;20049;-62
2022/06/02 02:39:01;;;;;;;19.38;14.25;;;;;;;9.27;95.43;96209.44;2073707;28;20053;-62
2022/06/02 02:40:05;;;;;;;17.83;13.88;;;;;;;9.24;95.09;96209.56;2060709;28;20051;-63
2022/06/02 02:41:06;;;;;;;18.05;13.35;;;;;;;9.16;95.25;96198.63;2073723;28;20045;-63
2022/06/02 02:42:16;;;;;;;19.75;14.15;;;;;;;9.29;95.31;96215.41;2081064;28;20430;-61
2022/06/02 02:43:24;;;;;;;17.80;13.32;;;;;;;9.29;95.07;96210.22;2089495;28;20040;-62
2022/06/02 02:44:46;;;;;;;19.65;13.65;;;;;;;9.30;95.29;96209.31;2089088;28;20045;-62
2022/06/02 02:45:59;;;;;;;18.75;14.63;;;;;;;9.31;94.76;96218.78;2084159;28;20510;-64
2022/06/02 02:47:25;;;;;;;20.25;14.55;;;;;;;9.34;95.59;96217.81;2082185;28;20049;-61
2022/06/02 02:48:52;;;;;;;16.35;12.30;;;;;;;9.34;94.96;96217.81;2084105;28;20055;-64
2022/06/02 02:49:53;;;;;;;15.32;12.40;;;;;;;9.33;95.22;96213.53;2075409;28;20045;-63
2022/06/02 02:51:11;;;;;;;21.35;13.82;;;;;;;9.34;95.02;96218.66;2087056;28;20560;-63
2022/06/02 02:52:16;;;;;;;;;;;;;;;9.32;95.20;96211.84;2097311;28;20040;-64
2022/06/02 02:53:42;;;;;;;19.55;13.40;;;;;;;9.31;95.37;96213.59;2086953;28;20325;-63
2022/06/02 02:54:59;;;;;;;19.02;14.18;;;;;;;9.31;94.98;96212.75;2079358;28;20044;-62
2022/06/02 02:56:09;;;;;;;19.98;16.15;;;;;;;9.30;95.35;96217.09;2092885;28;20533;-63
2022/06/02 02:57:23;;;;;;;22.52;16.05;;;;;;;9.27;95.04;96218.06;2087382;28;20044;-63
2022/06/02 02:58:24;;;;;;;22.55;16.33;;;;;;;9.18;95.43;96208.03;2074693;28;20416;-63
2022/06/02 02:59:35;;;;;;;19.20;15.15;;;;;;;9.28;95.56;96222.34;2080471;28;20045;-63
2022/06/02 03:00:42;;;;;;;23.05;16.02;;;;;;;9.30;95.52;96227.44;2089042;28;20545;-62
2022/06/02 03:01:50;;;;;;;21.35;15.45;;;;;;;9.31;95.48;96225.72;2072103;28;20042;-64
2022/06/02 03:03:16;;;;;;;18.65;13.52;;;;;;;9.32;95.39;96217.03;2066613;28;20054;-64
2022/06/02 03:04:22;;;;;;;17.65;13.50;;;;;;;9.34;95.44;96220.41;2071602;28;20050;-64
2022/06/02 03:05:38;;;;;;;18.95;14.02;;;;;;;9.35;95.17;96215.16;2075661;28;20554;-63
2022/06/02 03:06:39;;;;;;;18.42;14.25;;;;;;;9.37;95.58;96217.69;2088791;28;20041;-60
2022/06/02 03:07:40;;;;;;;22.08;14.07;;;;;;;9.35;94.85;96212.56;2088272;28;20045;-64
2022/06/02 03:08:51;;;;;;;19.40;15.18;;;;;;;9.32;95.20;96211.84;2091736;28;20056;-61
2022/06/02 03:10:16;;;;;;;23.17;16.10;;;;;;;9.32;95.15;96212.69;2103540;28;20071;-64
2022/06/02 03:11:40;;;;;;;19.90;14.45;;;;;;;9.33;95.27;96218.72;2080096;28;20052;-63
2022/06/02 03:12:57;;;;;;;19.75;15.50;;;;;;;9.21;95.54;96204.50;2079423;28;20053;-64
2022/06/02 03:14:08;;;;;;;18.95;14.95;;;;;;;9.36;94.92;96228.97;2084295;28;20045;-63
2022/06/02 03:15:30;;;;;;;18.80;14.82;;;;;;;9.35;95.55;96225.53;2089815;28;20045;-62
2022/06/02 03:16:32;;;;;;;22.67;16.45;;;;;;;9.35;95.37;96220.34;2091075;28;20048;-61
2022/06/02 03:18:10;;;;;;;20.42;15.32;;;;;;;9.41;95.54;96229.63;2071771;28;20062;-62
2022/06/02 03:19:21;;;;;;;21.65;16.58;;;;;;;9.43;94.98;96230.41;2079721;28;20044;-64
2022/06/02 03:20:37;;;;;;;23.00;17.83;;;;;;;9.45;95.36;96232.03;2082080;28;20041;-60
2022/06/02 03:21:59;;;;;;;22.75;16.42;;;;;;;9.48;95.63;96231.91;2090222;28;20067;-63
2022/06/02 03:23:16;;;;;;;22.88;16.15;;;;;;;9.49;95.53;96223.25;2091434;28;20083;-63
2022/06/02 03:24:29;;;;;;;21.92;16.92;;;;;;;9.52;95.11;96218.88;2081922;28;20040;-63
2022/06/02 03:25:41;;;;;;;24.65;16.75;;;;;;;9.57;95.75;96214.31;2077165;28;20075;-64
2022/06/02 03:27:10;;;;;;;23.00;16.13;;;;;;;9.58;95.68;96210.84;2082394;28;20049;-64
2022/06/02 03:28:36;;;;;;;20.10;16.00;;;;;;;9.63;95.33;96214.94;2083829;28;20056;-64
2022/06/02 03:30:16;;;;;;;18.75;15.32;;;;;;;9.70;95.12;96216.38;2075071;28;20052;-62
2022/06/02 03:31:25;;;;;;;23.40;16.80;;;;;;;9.73;95.50;96215.41;2084355;28;20041;-64
2022/06/02 03:33:02;;;;;;;22.05;16.33;;;;;;;9.75;95.48;96213.59;2082577;28;20045;-63
2022/06/02 03:34:21;;;;;;;21.23;16.25;;;;;;;9.76;95.34;96217.88;2097122;28;20055;-63
2022/06/02 03:35:29;;;;;;;22.85;16.50;;;;;;;9.78;95.50;96226.41;2096572;28;20036;-63
2022/06/02 03:36:43;;;;;;;24.58;18.25;;;;;;;9.79;95.18;96229.88;2072969;28;20659;-62
2022/06/02 03:38:24;;;;;;;21.92;16.30;;;;;;;9.81;95.58;96241.88;2084121;28;20045;-64
2022/06/02 03:39:32;;;;;;;13.60;12.02;;;;;;;9.86;95.69;96234.75;2094068;28;20047;-62
2022/06/02 03:40:50;;;;;;;17.80;13.70;;;;;;;9.89;95.63;96237.22;2088056;28;20579;-64
2022/06/02 03:42:23;;;;;;;19.70;15.13;;;;;;;9.92;95.34;96237.09;2076862;28;20042;-61
2022/06/02 03:43:27;;;;;;;20.17;14.70;;;;;;;9.96;95.16;96232.63;2088903;28;20403;-61
2022/06/02 03:44:48;;;;;;;19.55;15.13;;;;;;;9.97;95.57;96241.25;2096909;28;20047;-62
2022/06/02 03:45:57;;;;;;;20.60;15.55;;;;;;;9.98;95.27;96236.00;2097077;28;20043;-62
2022/06/02 03:47:30;;;;;;;19.48;14.38;;;;;;;10.03;95.23;96236.66;2088138;28;20057;-63
2022/06/02 03:48:54;;;;;;;21.98;15.45;;;;;;;10.09;95.00;96235.56;2078712;28;20057;-62
2022/06/02 03:50:20;;;;;;;21.60;15.35;;;;;;;10.07;94.81;96234.78;2083405;28;20048;-64
2022/06/02 03:51:42;;;;;;;20.50;16.15;;;;;;;10.11;95.59;96246.72;2096329;28;20058;-63
2022/06/02 03:53:04;;;;;;;20.73;14.93;;;;;;;10.13;94.79;96247.47;2083365;28;20527;-65
2022/06/02 03:54:16;;;;;;;18.40;14.95;;;;;;;10.14;94.98;96257.81;2086027;28;20514;-64
2022/06/02 03:55:26;;;;;;;21.40;16.20;;;;;;;10.14;95.25;96252.63;2081178;28;20041;-63
2022/06/02 03:56:35;;;;;;;20.77;16.27;;;;;;;10.15;94.63;96253.47;2074500;28;20052;-62
2022/06/02 03:57:48;;;;;;;23.65;18.15;;;;;;;10.15;94.86;96253.47;2089366;28;20044;-64
2022/06/02 03:59:07;;;;;;;23.65;17.42;;;;;;;10.17;95.00;96251.66;2101974;28;20054;-62
2022/06/02 04:00:16;;;;;;;20.90;15.77;;;;;;;10.22;95.18;96257.50;2090416;28;20043;-63
2022/06/02 04:01:20;;;;;;;22.50;16.08;;;;;;;10.22;94.86;96257.50;2096488;28;20052;-64
2022/06/02 04:02:28;;;;;;;23.60;16.58;;;;;;;10.23;95.12;96258.34;2096823;28;20055;-64
2022/06/02 04:03:50;;;;;;;24.55;18.40;;;;;;;10.23;95.51;96256.59;2080727;28;20057;-64
2022/06/02 04:05:05;;;;;;;23.73;16.55;;;;;;;10.26;95.29;96250.41;2091142;28;20048;-64
2022/06/02 04:06:17;;;;;;;19.05;15.75;;;;;;;10.29;95.17;96252.91;2096903;28;20044;-63
2022/06/02 04:07:22;;;;;;;21.40;17.17;;;;;;;10.37;94.62;96249.13;2080736;28;20454;-62
2022/06/02 04:08:35;;;;;;;18.65;15.52;;;;;;;10.40;94.47;96253.31;2080928;28;20041;-61
2022/06/02 04:09:48;;;;;;;24.17;16.52;;;;;;;10.43;95.06;96258.38;2080774;28;20057;-63
2022/06/02 04:11:29;;;;;;;19.55;15.75;;;;;;;10.46;94.21;96260.84;2083398;28;20049;-64
2022/06/02 04:14:54;;;;;;;22.40;14.45;;;;;;;10.60;94.62;96261.09;2094365;28;20049;-65
2022/06/02 04:16:07;;;;;;;21.25;13.30;;;;;;;10.63;94.66;96257.53;2098927;28;20055;-63
2022/06/02 04:17:19;;;;;;;15.48;13.52;;;;;;;10.67;94.41;96258.25;2098426;28;20071;-62
2022/06/02 04:18:24;;;;;;;18.02;12.35;;;;;;;10.67;94.01;96259.09;2092745;28;20052;-64
2022/06/02 04:21:41;;;;;;;15.35;11.65;;;;;;;10.64;93.50;96248.84;2081348;28;20049;-62
2022/06/02 04:23:08;;;;;;;15.70;10.73;;;;;;;10.71;93.64;96257.19;2094229;28;20041;-64
2022/06/02 04:24:34;;;;;;;12.43;10.50;;;;;;;10.72;93.40;96264.94;2098073;28;20525;-64
2022/06/02 04:25:42;;;;;;;12.70;10.30;;;;;;;10.70;92.50;96264.16;2098796;28;20048;-61
2022/06/02 04:27:08;;;;;;;13.48;11.43;;;;;;;10.70;92.79;96260.72;2097714;28;20494;-65
2022/06/02 04:28:11;;;;;;;16.67;10.90;;;;;;;10.68;92.26;96271.16;2097646;28;20431;-61
2022/06/02 04:29:36;;;;;;;11.27;9.50;;;;;;;10.73;92.20;96261.41;2098465;28;20044;-63
2022/06/02 04:30:41;;;;;;;14.90;10.27;;;;;;;10.78;92.66;96267.25;2084792;28;20052;-63
2022/06/02 04:31:48;;;;;;;11.30;9.70;;;;;;;10.81;91.83;96268.88;2082799;28;20045;-64
2022/06/02 04:33:25;;;;;;;12.32;9.98;;;;;;;10.78;90.99;96262.06;2098093;28;20044;-64
2022/06/02 04:34:26;;;;;;;11.55;9.23;;;;;;;10.82;91.21;96262.75;2098559;28;20044;-63
2022/06/02 04:35:32;;;;;;;13.90;9.73;;;;;;;10.82;91.63;96271.41;2098322;28;20418;-62
2022/06/02 04:36:45;;;;;;;14.05;9.30;;;;;;;10.79;91.27;96273.28;2097679;28;20051;-62
2022/06/02 04:38:22;;;;;;;10.40;8.63;;;;;;;10.70;90.28;96284.09;2098179;28;20055;-63
2022/06/02 04:39:28;;;;;;;11.68;8.88;;;;;;;10.64;89.92;96289.53;2097977;28;20576;-65
2022/06/02 04:40:37;;;;;;;12.73;9.02;;;;;;;10.62;89.98;96287.00;2081768;28;20068;-64
2022/06/02 04:42:02;;;;;;;10.90;9.20;;;;;;;10.63;90.06;96293.88;2077810;28;20060;-62
2022/06/02 04:43:23;;;;;;;11.75;9.00;;;;;;;10.67;90.25;96292.84;2092460;28;20083;-62
2022/06/02 04:44:31;;;;;;;11.50;9.43;;;;;;;10.75;89.74;96287.34;2084382;28;20037;-63
2022/06/02 04:46:04;;;;;;;11.40;8.52;;;;;;;10.86;89.31;96289.47;2083249;28;20475;-61
2022/06/02 04:47:14;;;;;;;12.00;7.90;;;;;;;10.97;88.02;96284.63;2102477;28;20040;-62
2022/06/02 04:48:23;;;;;;;11.43;7.78;;;;;;;11.05;87.38;96285.13;2089449;28;20044;-62
2022/06/02 04:50:02;;;;;;;14.27;8.80;;;;;;;11.20;87.66;96288.78;2084349;28;20056;-61
2022/06/02 04:51:14;;;;;;;10.13;7.65;;;;;;;11.33;86.82;96286.47;2097993;28;20051;-61
2022/06/02 04:52:32;;;;;;;9.52;7.65;;;;;;;11.53;87.38;96286.44;2098110;28;20047;-61
2022/06/02 04:53:56;;;;;;;14.35;8.93;;;;;;;11.51;87.00;96277.84;2097469;28;20454;-61
2022/06/02 04:55:10;;;;;;;10.02;8.35;;;;;;;11.40;86.04;96283.53;2096781;28;20044;-64
2022/06/02 04:56:26;;;;;;;12.40;8.20;;;;;;;11.38;85.70;96287.13;2097981;28;20079;-64
2022/06/02 04:57:49;;;;;;;11.70;8.30;;;;;;;11.35;85.86;96290.72;2097666;28;20343;-62
2022/06/02 04:58:50;;;;;;;11.38;8.38;;;;;;;11.39;86.65;96292.25;2076301;28;20049;-64
2022/06/02 05:00:30;;;;;;;11.30;8.38;;;;;;;11.46;86.69;96300.63;2081922;28;20045;-63
2022/06/02 05:01:39;;;;;;;10.50;7.82;;;;;;;11.47;87.19;96291.91;2089121;28;20049;-60
2022/06/02 05:02:55;;;;;;;12.48;8.18;;;;;;;11.43;85.49;96293.78;2080848;28;20423;-64
2022/06/02 05:04:15;;;;;;;10.35;7.18;;;;;;;11.46;85.38;96287.63;2091294;28;20047;-62
2022/06/02 05:05:38;;;;;;;10.18;7.70;;;;;;;11.50;83.56;96296.97;2097834;28;20060;-63
2022/06/02 05:06:42;;;;;;;11.05;7.65;;;;;;;11.31;83.25;96296.97;2092263;28;20130;-62
2022/06/02 05:08:04;;;;;;;9.98;6.90;;;;;;;11.38;84.09;96300.97;2089354;28;20426;-64
2022/06/02 05:09:05;;;;;;;12.98;7.93;;;;;;;11.43;85.19;96292.97;2089904;28;20388;-64
2022/06/02 05:10:11;;;;;;;11.65;8.43;;;;;;;11.36;84.45;96307.16;2095055;28;20045;-62
2022/06/02 05:11:52;;;;;;;10.15;7.60;;;;;;;11.33;84.61;96307.28;2097614;28;20530;-62
2022/06/02 05:13:19;;;;;;;12.15;7.78;;;;;;;11.32;85.31;96316.00;2092470;28;20040;-63
2022/06/02 05:14:40;;;;;;;12.00;8.43;;;;;;;11.33;85.73;96305.53;2091014;28;20052;-63
2022/06/02 05:16:05;;;;;;;13.10;8.35;;;;;;;11.38;85.85;96311.34;2084083;28;20049;-64
2022/06/02 05:17:25;;;;;;;13.35;8.75;;;;;;;11.31;85.07;96311.72;2080231;28;20048;-61
2022/06/02 05:18:34;;;;;;;10.65;7.95;;;;;;;11.36;84.81;96307.16;2088781;28;20032;-63
2022/06/02 05:19:50;;;;;;;10.82;7.32;;;;;;;11.41;84.48;96311.25;2096334;28;20418;-63
2022/06/02 05:21:30;;;;;;;11.45;8.05;;;;;;;11.54;83.89;96302.88;2094504;28;20082;-64
2022/06/02 05:22:51;;;;;;;9.70;8.20;;;;;;;11.72;83.87;96307.22;2097818;28;20059;-60
2022/06/02 05:24:05;;;;;;;12.30;8.27;;;;;;;11.75;82.67;96303.63;2089250;28;20491;-64
2022/06/02 05:25:21;;;;;;;9.73;7.63;;;;;;;11.83;81.95;96310.16;2092702;28;20111;-62
2022/06/02 05:26:54;;;;;;;10.27;7.88;;;;;;;11.95;82.57;96305.31;2098177;28;20040;-61
2022/06/02 05:28:19;;;;;;;10.50;7.78;;;;;;;12.02;82.68;96312.75;2095032;28;20517;-65
2022/06/02 05:29:20;;;;;;;13.10;7.93;;;;;;;12.01;82.77;96310.25;2097741;28;20036;-64
2022/06/02 05:30:27;;;;;;;11.80;8.00;;;;;;;12.03;82.91;96311.00;2081984;28;20045;-63
2022/06/02 05:31:42;;;;;;;10.25;7.80;;;;;;;12.04;82.30;96310.94;2090197;28;20049;-62
2022/06/02 05:32:52;;;;;;;9.90;7.68;;;;;;;12.03;81.65;96308.38;2097874;28;20052;-63
2022/06/02 05:34:30;;;;;;;11.13;7.55;;;;;;;12.02;81.58;96317.97;2097120;28;20437;-62
2022/06/02 05:35:51;;;;;;;12.48;7.40;;;;;;;11.95;81.47;96314.00;2094681;28;20048;-63
2022/06/02 05:37:02;;;;;;;11.63;8.68;;;;;;;11.91;81.88;96312.44;2075575;28;20050;-64
2022/06/02 05:38:33;;;;;;;11.45;8.18;;;;;;;11.86;82.33;96311.81;2080346;28;20060;-63
2022/06/02 05:40:14;;;;;;;9.43;7.88;;;;;;;11.77;81.90;96317.41;2114489;22;20528;-63
2022/06/02 05:41:31;;;;;;;11.85;7.57;;;;;;;11.60;81.54;96324.25;2080223;28;20057;-64
2022/06/02 05:42:46;;;;;;;8.98;7.63;;;;;;;11.59;82.33;96324.31;2072775;28;20425;-62
2022/06/02 05:44:18;;;;;;;9.50;7.28;;;;;;;11.54;82.18;96324.50;2083388;28;20045;-64
2022/06/02 05:45:51;;;;;;;11.05;8.32;;;;;;;11.48;82.80;96325.63;2081107;28;20041;-60
2022/06/02 05:47:04;;;;;;;11.27;8.57;;;;;;;11.54;83.52;96323.66;2077005;28;20045;-62
2022/06/02 05:48:23;;;;;;;11.18;8.57;;;;;;;11.66;83.18;96320.53;2082916;28;20052;-62
2022/06/02 05:49:26;;;;;;;;;;;;;;;11.74;82.10;96317.56;2079028;28;20052;-63
2022/06/02 05:50:32;;;;;;;11.43;7.80;;;;;;;11.76;81.10;96313.13;2065017;28;19917;-62
2022/06/02 05:51:39;;;;;;;11.68;7.07;;;;;;;11.83;80.47;96307.56;2050155;28;20062;-63
2022/06/02 05:52:42;;;;;;;11.88;6.95;;;;;;;11.89;79.43;96304.72;2057879;28;20057;-64
2022/06/02 05:54:24;;;;;;;8.77;6.88;;;;;;;11.96;79.00;96307.00;2065022;28;20457;-61
2022/06/02 05:55:58;;;;;;;7.30;6.40;;;;;;;12.04;78.66;96305.72;2072973;28;20041;-62
2022/06/02 05:57:03;;;;;;;9.52;6.03;;;;;;;12.18;77.84;96306.81;2078316;28;20044;-61
2022/06/02 05:58:13;;;;;;;10.13;5.93;;;;;;;12.31;78.07;96307.91;2074768;28;20064;-62
2022/06/02 05:59:38;;;;;;;9.40;6.13;;;;;;;12.30;77.28;96306.22;2067306;28;20054;-63
2022/06/02 06:01:10;;;;;;;9.30;5.70;;;;;;;12.36;76.48;96311.13;2070546;28;20041;-60
2022/06/02 06:02:33;;;;;;;7.00;5.95;;;;;;;12.39;75.59;96315.34;2077153;28;20037;-62
2022/06/02 06:03:46;;;;;;;6.65;5.50;;;;;;;12.36;75.97;96311.13;2073776;28;20046;-64
2022/06/02 06:05:16;;;;;;;8.02;5.57;;;;;;;12.36;75.48;96311.13;2063419;28;20553;-60